createdAt,value
2022-07-29T00:02:38.980Z,25.88
2022-07-29T00:05:42.209Z,25.86
2022-07-29T00:08:44.304Z,25.87
2022-07-29T00:11:46.432Z,25.87
2022-07-29T00:14:48.561Z,25.84
2022-07-29T00:17:51.169Z,25.84
2022-07-29T00:20:53.365Z,25.87
2022-07-29T00:23:55.447Z,25.89
2022-07-29T00:26:57.525Z,25.88
2022-07-29T00:29:59.559Z,25.89
2022-07-29T00:33:01.612Z,25.83
2022-07-29T00:36:04.066Z,25.83
2022-07-29T00:39:06.085Z,25.79
2022-07-29T00:42:08.894Z,25.82
2022-07-29T00:45:11.448Z,25.82
2022-07-29T00:48:13.749Z,25.81
2022-07-29T00:51:16.226Z,25.80
2022-07-29T00:54:18.778Z,25.81
2022-07-29T00:57:21.686Z,25.79
2022-07-29T01:00:26.938Z,25.79
2022-07-29T01:03:29.026Z,25.78
2022-07-29T01:06:31.303Z,25.79
2022-07-29T01:09:45.263Z,25.78
2022-07-29T01:12:51.443Z,25.76
2022-07-29T01:16:02.437Z,25.73
2022-07-29T01:19:43.176Z,25.73
2022-07-29T01:23:05.952Z,25.76
2022-07-29T01:26:46.597Z,25.68
2022-07-29T01:29:55.191Z,25.66
2022-07-29T01:33:03.883Z,25.60
2022-07-29T01:36:12.537Z,25.53
2022-07-29T01:39:28.016Z,25.57
2022-07-29T01:42:37.767Z,25.50
2022-07-29T01:45:41.547Z,25.58
2022-07-29T01:48:58.497Z,25.56
2022-07-29T01:52:09.601Z,25.57
2022-07-29T01:55:15.999Z,25.56
2022-07-29T01:58:20.003Z,25.50
2022-07-29T02:01:25.131Z,25.52
2022-07-29T02:04:30.286Z,25.53
2022-07-29T02:07:33.895Z,25.51
2022-07-29T02:10:37.062Z,25.51
2022-07-29T02:13:40.000Z,25.56
2022-07-29T02:16:42.839Z,25.53
2022-07-29T02:19:46.320Z,25.57
2022-07-29T02:22:49.706Z,25.58
2022-07-29T02:25:57.796Z,25.61
2022-07-29T02:29:01.055Z,25.50
2022-07-29T02:32:05.319Z,25.60
2022-07-29T02:35:09.613Z,25.58
2022-07-29T02:38:34.220Z,25.56
2022-07-29T02:41:46.909Z,25.52
2022-07-29T02:44:49.371Z,25.54
2022-07-29T02:47:52.454Z,25.52
2022-07-29T02:51:02.310Z,25.51
2022-07-29T02:54:08.408Z,25.48
2022-07-29T02:57:21.240Z,25.47
2022-07-29T03:00:26.327Z,25.43
2022-07-29T03:03:33.220Z,25.39
2022-07-29T03:06:38.071Z,25.35
2022-07-29T03:09:42.770Z,25.33
2022-07-29T03:12:45.893Z,25.28
2022-07-29T03:15:48.922Z,25.22
2022-07-29T03:18:52.323Z,25.19
2022-07-29T03:21:56.955Z,25.16
2022-07-29T03:24:59.005Z,25.14
2022-07-29T03:28:01.671Z,25.00
2022-07-29T03:31:03.776Z,25.19
2022-07-29T03:34:07.806Z,25.32
2022-07-29T03:37:09.890Z,25.31
2022-07-29T03:40:16.965Z,25.27
2022-07-29T03:43:20.554Z,25.25
2022-07-29T03:46:24.949Z,25.34
2022-07-29T03:49:28.446Z,25.34
2022-07-29T03:52:31.275Z,25.28
2022-07-29T03:55:38.435Z,25.22
2022-07-29T03:58:40.764Z,25.18
2022-07-29T04:01:43.554Z,25.18
2022-07-29T04:04:45.828Z,25.04
2022-07-29T04:07:49.561Z,25.12
2022-07-29T04:10:53.343Z,25.15
2022-07-29T04:13:55.398Z,24.91
2022-07-29T04:16:57.440Z,24.85
2022-07-29T04:19:59.468Z,24.88
2022-07-29T04:23:01.490Z,24.99
2022-07-29T04:26:03.666Z,24.77
2022-07-29T04:29:05.753Z,24.77
2022-07-29T04:32:07.938Z,24.68
2022-07-29T04:35:09.960Z,24.83
2022-07-29T04:38:15.858Z,24.90
2022-07-29T04:41:20.769Z,24.86
2022-07-29T04:44:27.652Z,24.84
2022-07-29T04:47:30.895Z,24.71
2022-07-29T04:50:33.450Z,24.09
2022-07-29T04:53:35.473Z,23.79
2022-07-29T04:56:37.592Z,23.75
2022-07-29T04:59:39.650Z,23.80
2022-07-29T05:02:41.931Z,23.84
2022-07-29T05:05:44.058Z,23.84
2022-07-29T05:08:46.157Z,23.77
2022-07-29T05:11:48.337Z,23.62
2022-07-29T05:14:50.496Z,23.50
2022-07-29T05:17:52.834Z,23.74
2022-07-29T05:20:54.928Z,23.55
2022-07-29T05:23:57.012Z,23.43
2022-07-29T05:26:59.175Z,22.55
2022-07-29T05:30:01.281Z,22.90
2022-07-29T05:33:03.340Z,23.13
2022-07-29T05:36:08.912Z,23.09
2022-07-29T05:39:11.018Z,23.23
2022-07-29T05:42:13.194Z,23.50
2022-07-29T05:45:15.278Z,23.51
2022-07-29T05:48:17.328Z,23.34
2022-07-29T05:51:19.372Z,23.34
2022-07-29T05:54:21.863Z,23.37
2022-07-29T05:57:25.041Z,23.20
2022-07-29T06:00:29.545Z,23.20
2022-07-29T06:03:31.682Z,23.32
2022-07-29T06:06:34.743Z,23.53
2022-07-29T06:09:36.789Z,23.76
2022-07-29T06:12:38.881Z,23.65
2022-07-29T06:15:41.044Z,23.87
2022-07-29T06:18:43.134Z,23.91
2022-07-29T06:21:46.192Z,23.92
2022-07-29T06:24:48.284Z,24.00
2022-07-29T06:27:50.387Z,23.87
2022-07-29T06:30:52.654Z,23.96
2022-07-29T06:33:54.766Z,23.94
2022-07-29T06:36:57.520Z,23.92
2022-07-29T06:40:18.204Z,24.01
2022-07-29T06:43:20.620Z,24.08
2022-07-29T06:46:23.817Z,24.11
2022-07-29T06:49:27.207Z,23.98
2022-07-29T06:52:29.349Z,23.77
2022-07-29T06:55:31.541Z,23.13
2022-07-29T06:58:33.710Z,23.31
2022-07-29T07:01:40.401Z,23.81
2022-07-29T07:04:42.884Z,24.15
2022-07-29T07:07:45.142Z,24.46
2022-07-29T07:10:47.419Z,24.55
2022-07-29T07:13:50.701Z,24.34
2022-07-29T07:16:52.838Z,24.56
2022-07-29T07:19:56.815Z,24.65
2022-07-29T07:22:59.178Z,24.68
2022-07-29T07:26:01.485Z,24.71
2022-07-29T07:29:03.645Z,24.57
2022-07-29T07:32:06.011Z,24.70
2022-07-29T07:35:10.240Z,24.65
2022-07-29T07:38:12.477Z,24.46
2022-07-29T07:41:14.832Z,24.48
2022-07-29T07:44:17.507Z,24.58
2022-07-29T07:47:24.425Z,24.69
2022-07-29T07:50:30.044Z,24.78
2022-07-29T07:53:32.532Z,24.95
2022-07-29T07:56:35.435Z,25.07
2022-07-29T07:59:37.728Z,24.75
2022-07-29T08:02:40.543Z,24.56
2022-07-29T08:05:42.826Z,24.73
2022-07-29T08:08:45.096Z,24.75
2022-07-29T08:11:52.048Z,24.85
2022-07-29T08:14:55.037Z,25.03
2022-07-29T08:17:57.192Z,24.97
2022-07-29T08:20:59.981Z,24.99
2022-07-29T08:24:21.355Z,25.07
2022-07-29T08:30:46.158Z,25.17
2022-07-29T08:33:48.245Z,24.98
2022-07-29T08:36:50.299Z,25.04
2022-07-29T08:39:53.588Z,25.13
2022-07-29T08:42:55.668Z,25.31
2022-07-29T08:45:57.854Z,25.37
2022-07-29T08:49:00.333Z,25.09
2022-07-29T08:52:02.852Z,25.03
2022-07-29T08:55:07.440Z,25.16
2022-07-29T08:58:10.398Z,25.16
2022-07-29T09:01:17.595Z,25.13
2022-07-29T09:04:22.424Z,25.00
2022-07-29T09:07:24.528Z,24.82
2022-07-29T09:10:37.419Z,24.87
2022-07-29T09:13:39.552Z,24.91
2022-07-29T09:16:53.652Z,25.12
2022-07-29T09:20:10.563Z,25.25
2022-07-29T09:23:13.048Z,25.24
2022-07-29T09:26:30.844Z,25.28
2022-07-29T09:29:36.122Z,25.30
2022-07-29T09:32:59.438Z,25.23
2022-07-29T09:36:09.530Z,25.40
2022-07-29T09:39:11.922Z,25.43
2022-07-29T09:42:14.351Z,25.51
2022-07-29T09:45:32.953Z,25.62
2022-07-29T09:48:35.030Z,25.72
2022-07-29T09:51:38.213Z,26.06
2022-07-29T09:54:41.287Z,26.46
2022-07-29T09:57:44.018Z,26.75
2022-07-29T10:00:47.371Z,26.27
2022-07-29T10:03:55.569Z,26.10
2022-07-29T10:07:05.002Z,25.98
2022-07-29T10:10:07.929Z,25.91
2022-07-29T10:13:16.543Z,25.86
2022-07-29T10:16:19.010Z,25.84
2022-07-29T10:19:21.350Z,25.82
2022-07-29T10:22:51.560Z,25.89
2022-07-29T10:25:47.353Z,25.90
2022-07-29T10:28:49.457Z,25.95
2022-07-29T10:31:56.818Z,25.98
2022-07-29T10:35:19.868Z,25.99
2022-07-29T10:39:05.734Z,26.10
2022-07-29T10:42:17.050Z,26.15
2022-07-29T10:45:23.335Z,26.20
2022-07-29T10:48:25.707Z,26.25
2022-07-29T10:51:55.822Z,26.34
2022-07-29T10:55:01.227Z,26.34
2022-07-29T10:58:19.144Z,26.34
2022-07-29T11:01:37.110Z,26.35
2022-07-29T11:04:45.756Z,26.39
2022-07-29T11:08:20.389Z,26.32
2022-07-29T11:11:36.527Z,26.33
2022-07-29T11:15:00.015Z,26.18
2022-07-29T11:18:02.262Z,26.17
2022-07-29T11:21:04.444Z,26.10
2022-07-29T11:24:30.017Z,26.23
2022-07-29T11:27:40.405Z,26.28
2022-07-29T11:31:09.293Z,26.21
2022-07-29T11:38:08.698Z,26.25
2022-07-29T11:41:27.206Z,26.33
2022-07-29T11:45:41.606Z,26.38
2022-07-29T11:48:32.082Z,26.34
2022-07-29T11:51:35.771Z,26.36
2022-07-29T11:54:57.815Z,26.28
2022-07-29T11:58:04.041Z,26.36
2022-07-29T12:01:07.268Z,26.35
2022-07-29T12:04:09.894Z,26.35
2022-07-29T12:07:15.599Z,26.32
2022-07-29T12:10:19.855Z,26.26
2022-07-29T12:13:40.368Z,26.25
2022-07-29T12:16:42.586Z,26.25
2022-07-29T12:19:46.227Z,26.18
2022-07-29T12:22:50.223Z,26.16
2022-07-29T12:25:53.187Z,26.16
2022-07-29T12:28:56.767Z,26.16
2022-07-29T12:31:59.421Z,26.21
2022-07-29T12:35:11.236Z,26.23
2022-07-29T12:38:15.312Z,26.16
2022-07-29T12:41:17.631Z,26.17
2022-07-29T12:44:19.736Z,26.20
2022-07-29T12:47:22.513Z,26.15
2022-07-29T12:50:26.549Z,26.12
2022-07-29T12:53:29.181Z,26.12
2022-07-29T12:56:46.831Z,26.17
2022-07-29T13:00:11.732Z,26.19
2022-07-29T13:03:13.861Z,26.24
2022-07-29T13:06:42.625Z,26.28
2022-07-29T13:09:48.278Z,26.30
2022-07-29T13:13:15.396Z,26.28
2022-07-29T13:16:17.522Z,26.22
2022-07-29T13:19:19.690Z,26.20
2022-07-29T13:22:24.058Z,26.22
2022-07-29T13:25:32.564Z,26.19
2022-07-29T13:28:35.235Z,26.21
2022-07-29T13:31:37.310Z,26.20
2022-07-29T13:34:39.651Z,26.19
2022-07-29T13:37:41.934Z,26.25
2022-07-29T13:40:44.599Z,26.28
2022-07-29T13:43:46.687Z,26.30
2022-07-29T13:46:52.211Z,26.35
2022-07-29T13:49:54.555Z,26.27
2022-07-29T13:52:56.757Z,26.23
2022-07-29T13:55:59.513Z,26.24
2022-07-29T13:59:01.639Z,26.25
2022-07-29T14:02:04.448Z,26.22
2022-07-29T14:05:11.057Z,26.22
2022-07-29T14:08:13.338Z,26.26
2022-07-29T14:11:15.399Z,26.28
2022-07-29T14:14:17.813Z,26.33
2022-07-29T14:17:20.221Z,26.37
2022-07-29T14:20:22.328Z,26.41
2022-07-29T14:23:24.518Z,26.38
2022-07-29T14:26:28.568Z,26.48
2022-07-29T14:29:37.560Z,26.46
2022-07-29T14:32:40.556Z,26.51
2022-07-29T14:35:42.667Z,26.54
2022-07-29T14:38:44.772Z,26.54
2022-07-29T14:41:47.149Z,26.55
2022-07-29T14:44:50.238Z,26.56
2022-07-29T14:47:56.550Z,26.56
2022-07-29T14:51:04.289Z,26.54
2022-07-29T14:54:07.094Z,26.54
2022-07-29T14:57:09.786Z,26.56
2022-07-29T15:00:13.554Z,26.58
2022-07-29T15:03:23.831Z,26.58
2022-07-29T15:06:26.795Z,26.57
2022-07-29T15:09:28.890Z,26.61
2022-07-29T15:12:32.540Z,26.61
2022-07-29T15:15:34.768Z,26.60
2022-07-29T15:18:39.124Z,26.61
2022-07-29T15:21:48.743Z,26.61
2022-07-29T15:24:51.245Z,26.60
2022-07-29T15:27:55.678Z,26.61
2022-07-29T15:31:01.260Z,26.60
2022-07-29T15:34:05.931Z,26.63
2022-07-29T15:37:08.592Z,26.60
2022-07-29T15:40:11.298Z,26.62
2022-07-29T15:43:13.554Z,26.61
2022-07-29T15:46:35.848Z,26.60
2022-07-29T15:49:47.860Z,26.61
2022-07-29T15:52:50.920Z,26.62
2022-07-29T15:55:53.224Z,26.63
2022-07-29T15:58:55.368Z,26.63
2022-07-29T16:01:57.569Z,26.67
2022-07-29T16:04:59.672Z,26.66
2022-07-29T16:08:01.728Z,26.65
2022-07-29T16:11:03.909Z,26.65
2022-07-29T16:14:05.991Z,26.68
2022-07-29T16:17:14.354Z,26.75
2022-07-29T16:20:17.645Z,26.78
2022-07-29T16:23:19.783Z,26.80
2022-07-29T16:26:21.899Z,26.82
2022-07-29T16:29:24.081Z,26.83
2022-07-29T16:32:26.201Z,26.85
2022-07-29T16:35:39.804Z,26.85
2022-07-29T16:38:46.977Z,26.86
2022-07-29T16:41:49.714Z,26.83
2022-07-29T16:44:51.828Z,26.83
2022-07-29T16:48:00.141Z,26.82
2022-07-29T16:51:03.302Z,26.82
2022-07-29T16:54:05.668Z,26.81
2022-07-29T16:57:07.946Z,26.77
2022-07-29T17:00:11.098Z,26.77
2022-07-29T17:03:13.617Z,26.75
2022-07-29T17:06:15.712Z,26.73
2022-07-29T17:09:17.803Z,26.71
2022-07-29T17:12:19.995Z,26.67
2022-07-29T17:15:22.127Z,26.68
2022-07-29T17:18:24.166Z,26.67
2022-07-29T17:21:27.931Z,26.64
2022-07-29T17:24:30.009Z,26.63
2022-07-29T17:27:32.607Z,26.62
2022-07-29T17:30:34.668Z,26.60
2022-07-29T17:33:36.984Z,26.57
2022-07-29T17:36:39.091Z,26.56
2022-07-29T17:39:42.311Z,26.55
2022-07-29T17:42:44.394Z,26.53
2022-07-29T17:45:49.914Z,26.53
2022-07-29T17:48:54.193Z,26.52
2022-07-29T17:52:00.499Z,26.50
2022-07-29T17:55:03.212Z,26.50
2022-07-29T17:58:08.395Z,26.49
2022-07-29T18:01:10.767Z,26.49
2022-07-29T18:04:13.064Z,26.48
2022-07-29T18:07:15.266Z,26.46
2022-07-29T18:10:17.364Z,26.47
2022-07-29T18:13:20.063Z,26.46
2022-07-29T18:16:22.157Z,26.45
2022-07-29T18:19:24.284Z,26.43
2022-07-29T18:22:26.485Z,26.42
2022-07-29T18:25:29.569Z,26.41
2022-07-29T18:28:32.751Z,26.41
2022-07-29T18:31:34.870Z,26.41
2022-07-29T18:34:37.088Z,26.39
2022-07-29T18:38:00.782Z,26.37
2022-07-29T18:41:01.553Z,26.38
2022-07-29T18:44:03.670Z,26.35
2022-07-29T18:47:06.647Z,26.34
2022-07-29T18:50:13.460Z,26.34
2022-07-29T18:53:15.651Z,26.31
2022-07-29T18:56:18.173Z,26.32
2022-07-29T18:59:21.436Z,26.30
2022-07-29T19:02:23.682Z,26.26
2022-07-29T19:05:25.974Z,26.26
2022-07-29T19:08:28.106Z,26.25
2022-07-29T19:11:30.369Z,26.23
2022-07-29T19:14:32.462Z,26.23
2022-07-29T19:17:34.640Z,26.21
2022-07-29T19:20:38.433Z,26.20
2022-07-29T19:24:06.395Z,26.18
2022-07-29T19:27:02.707Z,26.19
2022-07-29T19:30:07.021Z,26.18
2022-07-29T19:33:09.094Z,26.17
2022-07-29T19:36:11.541Z,26.16
2022-07-29T19:39:15.260Z,26.16
2022-07-29T19:42:17.311Z,26.18
2022-07-29T19:45:21.232Z,26.12
2022-07-29T19:48:23.450Z,25.93
2022-07-29T19:51:25.978Z,25.89
2022-07-29T19:54:28.066Z,25.90
2022-07-29T19:57:35.913Z,25.83
2022-07-29T20:00:43.643Z,25.79
2022-07-29T20:03:46.637Z,25.84
2022-07-29T20:06:49.505Z,25.89
2022-07-29T20:09:54.793Z,25.94
2022-07-29T20:12:56.867Z,25.90
2022-07-29T20:15:59.724Z,25.86
2022-07-29T20:19:01.899Z,25.76
2022-07-29T20:22:04.073Z,25.78
2022-07-29T20:25:09.631Z,25.71
2022-07-29T20:28:11.963Z,25.73
2022-07-29T20:31:16.589Z,25.79
2022-07-29T20:34:18.994Z,25.82
2022-07-29T20:37:21.072Z,25.82
2022-07-29T20:40:24.695Z,25.81
2022-07-29T20:43:27.551Z,25.82
2022-07-29T20:46:29.908Z,25.73
2022-07-29T20:49:32.166Z,25.75
2022-07-29T20:52:34.653Z,25.77
2022-07-29T20:55:36.783Z,25.77
2022-07-29T20:58:40.330Z,25.75
2022-07-29T21:01:42.423Z,25.73
2022-07-29T21:04:44.508Z,25.74
2022-07-29T21:07:46.585Z,25.69
2022-07-29T21:10:48.721Z,25.73
2022-07-29T21:13:50.814Z,25.71
2022-07-29T21:16:53.128Z,25.69
2022-07-29T21:19:55.353Z,25.71
2022-07-29T21:22:58.017Z,25.63
2022-07-29T21:26:00.162Z,25.61
2022-07-29T21:29:02.240Z,25.59
2022-07-29T21:32:04.680Z,25.67
2022-07-29T21:35:18.268Z,25.66
2022-07-29T21:38:29.896Z,25.65
2022-07-29T21:41:32.249Z,25.59
2022-07-29T21:44:38.112Z,25.59
2022-07-29T21:47:40.232Z,25.51
2022-07-29T21:50:42.539Z,25.43
2022-07-29T21:53:44.641Z,25.50
2022-07-29T21:56:51.228Z,25.56
2022-07-29T21:59:53.537Z,25.51
2022-07-29T22:02:55.922Z,25.53
2022-07-29T22:05:57.977Z,25.57
2022-07-29T22:09:00.573Z,25.57
2022-07-29T22:12:02.894Z,25.45
2022-07-29T22:15:05.420Z,25.48
2022-07-29T22:18:07.708Z,25.50
2022-07-29T22:21:09.747Z,25.48
2022-07-29T22:24:11.823Z,25.50
2022-07-29T22:27:14.091Z,25.45
2022-07-29T22:30:16.690Z,25.35
2022-07-29T22:33:18.890Z,25.37
2022-07-29T22:36:21.004Z,25.40
2022-07-29T22:39:23.160Z,25.31
2022-07-29T22:42:25.616Z,25.29
2022-07-29T22:45:27.772Z,25.21
2022-07-29T22:48:29.872Z,25.17
2022-07-29T22:51:32.171Z,25.19
2022-07-29T22:54:34.265Z,25.19
2022-07-29T22:57:36.555Z,25.15
2022-07-29T23:00:38.710Z,25.16
2022-07-29T23:03:41.026Z,25.15
2022-07-29T23:06:53.590Z,25.12
2022-07-29T23:09:55.877Z,25.14
2022-07-29T23:12:58.003Z,25.12
2022-07-29T23:16:01.067Z,24.99
2022-07-29T23:19:03.259Z,25.02
2022-07-29T23:22:05.422Z,24.94
2022-07-29T23:25:07.895Z,24.86
2022-07-29T23:28:11.506Z,24.77
2022-07-29T23:31:14.587Z,24.78
2022-07-29T23:34:16.744Z,24.85
2022-07-29T23:37:18.823Z,24.85
2022-07-29T23:40:20.993Z,24.84
2022-07-29T23:43:23.090Z,24.69
2022-07-29T23:46:25.250Z,24.69
2022-07-29T23:49:27.438Z,24.71
2022-07-29T23:52:29.555Z,24.77
2022-07-29T23:55:37.297Z,24.79
2022-07-29T23:58:41.173Z,24.65
